메인 페이지
METAR-TAF:

METAR-TAF

공항 :

타이완 타오위안 국제공항

타이베이, 타이완

위도: 25-05N, 경도: 121-13E, 고도: 33m

현재 날씨관측

예보는 13분 전, 23:30시(UTC)에 발표되었습니다.
7kt
온도 31°C
습도 63%
기압 1009 hPa
시정 10km 이상
고도 1500ft 상공 구름 조금

METAR: RCTP 262330Z 17007KT 9999 FEW015 31/23 Q1009 NOSIG RMK A2981

시각: 07:43 (23:43 UTC)

예보

예보는 43분 전, 23:00시(UTC)에 발표되었습니다.
예보 대상 시간: 27일 00시부터 28일 06시까지 (UTC)
남남서8kt
시정 10km 이상
고도 1500ft 상공 구름 조금
일시적
27일 06시부터 27일 12시까지 (UTC)
13kt
전환 중
27일 10시부터 27일 12시까지 (UTC)
남남동5kt
고도 1000ft 상공 구름 조금
고도 3200ft 상공 구름 많음
일시적
27일 13시부터 27일 17시까지 (UTC)
고도 800ft 상공 구름 보통
고도 1600ft 상공 구름 많음
고도 3000ft 상공 구름 많음
일시적
27일 18시부터 27일 24시까지 (UTC)
고도 500ft 상공 구름 보통
고도 800ft 상공 구름 많음
고도 2500ft 상공 구름 많음
전환 중
28일 00시부터 28일 02시까지 (UTC)
서북서5kt

TAF: RCTP 262300Z 2700/2806 21008KT 9999 FEW015 TEMPO 2706/2712 27013KT BECMG 2710/2712 15005KT FEW010 BKN032 TEMPO 2713/2717 SCT008 BKN016 BKN030 TEMPO 2718/2724 SCT005 BKN008 BKN025 BECMG 2800/2802 30005KT

4,000개 이상의 공항 관측 자료 및 예보 (METAR 및 TAF 보고).

지도상에서 검색 가능한 기상관측소가 노란 점과 빨간 점으로 표시되어 있습니다.

기상관측소 명을 보려면 표시 위로 마우스를 이동하세요.

날씨 관측과 예보를 보려면 클릭하세요.

지도 변경 : 확대하려면 엑스 표시가 있는 녹색 버튼, 축소하려면 빼기 표시가 있는 녹색 버튼, 다음 페이지의 지도를 보려면 녹색 화살표를 클릭하세요.


METAR-TAF: